createdAt,value
2023-04-12T00:00:12.572Z,47.80
2023-04-12T00:02:42.368Z,48.16
2023-04-12T00:05:11.514Z,48.09
2023-04-12T00:07:41.102Z,48.09
2023-04-12T00:10:09.568Z,47.96
2023-04-12T00:12:36.610Z,48.19
2023-04-12T00:15:04.130Z,48.06
2023-04-12T00:17:32.262Z,48.33
2023-04-12T00:19:59.337Z,48.39
2023-04-12T00:22:26.823Z,48.58
2023-04-12T00:24:56.359Z,48.68
2023-04-12T00:27:23.400Z,48.74
2023-04-12T00:29:50.358Z,48.56
2023-04-12T00:32:17.391Z,48.69
2023-04-12T00:34:44.268Z,48.90
2023-04-12T00:56:41.506Z,49.74
2023-04-12T00:59:08.744Z,49.72
2023-04-12T01:01:35.604Z,50.00
2023-04-12T01:04:04.968Z,50.62
2023-04-12T01:06:41.031Z,50.53
2023-04-12T01:09:30.466Z,49.89
2023-04-12T01:12:05.272Z,49.78
2023-04-12T01:15:08.340Z,49.95
2023-04-12T01:17:54.823Z,49.11
2023-04-12T01:20:26.149Z,50.88
2023-04-12T01:23:15.876Z,50.83
2023-04-12T01:26:08.298Z,51.34
2023-04-12T01:28:42.392Z,52.25
2023-04-12T01:31:10.664Z,52.39
2023-04-12T01:33:39.081Z,52.70
2023-04-12T01:36:16.138Z,53.26
2023-04-12T01:38:48.041Z,53.52
2023-04-12T01:41:15.234Z,53.43
2023-04-12T01:43:46.281Z,53.87
2023-04-12T01:46:17.332Z,53.99
2023-04-12T01:48:51.101Z,54.30
2023-04-12T01:51:34.791Z,54.59
2023-04-12T01:54:12.234Z,54.35
2023-04-12T01:56:45.041Z,54.17
2023-04-12T01:59:14.863Z,54.47
2023-04-12T02:01:44.074Z,54.66
2023-04-12T02:04:11.818Z,54.44
2023-04-12T02:06:39.889Z,54.83
2023-04-12T02:09:09.904Z,55.25
2023-04-12T02:11:36.893Z,55.43
2023-04-12T02:14:06.634Z,55.50
2023-04-12T02:16:34.871Z,55.06
2023-04-12T02:19:02.231Z,54.90
2023-04-12T02:21:33.787Z,55.04
2023-04-12T02:24:04.633Z,54.32
2023-04-12T02:26:31.707Z,53.46
2023-04-12T02:28:58.660Z,53.09
2023-04-12T02:34:33.531Z,53.46
2023-04-12T02:37:18.960Z,54.46
2023-04-12T02:39:52.584Z,55.23
2023-04-12T02:42:20.750Z,55.17
2023-04-12T02:44:49.106Z,55.24
2023-04-12T02:47:16.412Z,55.38
2023-04-12T02:49:47.155Z,55.53
2023-04-12T02:52:17.155Z,55.45
2023-04-12T02:55:05.996Z,55.40
2023-04-12T02:57:33.526Z,55.15
2023-04-12T03:00:01.896Z,55.25
2023-04-12T03:02:45.180Z,54.80
2023-04-12T03:05:23.413Z,55.04
2023-04-12T03:07:53.796Z,55.34
2023-04-12T03:10:26.510Z,55.02
2023-04-12T03:13:02.517Z,55.02
2023-04-12T03:15:34.096Z,55.10
2023-04-12T03:18:02.036Z,54.92
2023-04-12T03:20:33.719Z,54.82
2023-04-12T03:23:08.796Z,54.12
2023-04-12T03:25:39.151Z,52.77
2023-04-12T03:28:45.965Z,52.69
2023-04-12T03:31:13.451Z,51.81
2023-04-12T03:33:43.253Z,51.21
2023-04-12T03:36:23.215Z,50.71
2023-04-12T03:39:00.138Z,50.14
2023-04-12T03:41:32.962Z,49.84
2023-04-12T03:44:03.982Z,49.95
2023-04-12T03:46:35.863Z,49.57
2023-04-12T03:49:07.670Z,49.81
2023-04-12T03:51:35.925Z,49.25
2023-04-12T03:54:09.181Z,50.91
2023-04-12T03:56:46.119Z,50.11
2023-04-12T03:59:23.479Z,50.83
2023-04-12T04:01:51.038Z,50.93
2023-04-12T04:04:23.060Z,51.18
2023-04-12T04:06:55.572Z,50.08
2023-04-12T04:09:23.613Z,49.50
2023-04-12T04:11:52.292Z,49.00
2023-04-12T04:14:21.643Z,48.69
2023-04-12T04:16:54.224Z,48.41
2023-04-12T04:19:28.351Z,48.39
2023-04-12T04:21:56.487Z,48.31
2023-04-12T04:24:26.209Z,47.55
2023-04-12T04:26:58.963Z,47.06
2023-04-12T04:29:28.751Z,46.53
2023-04-12T04:31:58.038Z,46.75
2023-04-12T04:34:26.423Z,47.68
2023-04-12T04:37:01.027Z,47.14
2023-04-12T04:39:29.466Z,47.32
2023-04-12T04:45:24.711Z,49.04
2023-04-12T04:47:54.047Z,49.35
2023-04-12T04:50:25.569Z,50.17
2023-04-12T04:52:53.575Z,47.86
2023-04-12T04:55:23.482Z,46.64
2023-04-12T04:57:55.708Z,45.77
2023-04-12T05:00:25.979Z,44.49
2023-04-12T05:02:56.865Z,43.45
2023-04-12T05:05:31.582Z,42.72
2023-04-12T05:08:05.757Z,42.79
2023-04-12T05:10:37.808Z,42.48
2023-04-12T05:13:10.367Z,41.75
2023-04-12T05:15:40.715Z,41.68
2023-04-12T05:18:08.039Z,41.60
2023-04-12T05:20:35.115Z,41.58
2023-04-12T05:23:02.540Z,41.19
2023-04-12T05:25:29.712Z,40.67
2023-04-12T05:28:04.841Z,40.55
2023-04-12T05:30:32.906Z,40.71
2023-04-12T05:33:05.489Z,40.83
2023-04-12T05:35:34.115Z,39.37
2023-04-12T05:38:01.228Z,39.23
2023-04-12T05:40:28.558Z,38.62
2023-04-12T05:42:59.401Z,38.41
2023-04-12T05:45:30.135Z,38.50
2023-04-12T05:47:59.625Z,38.47
2023-04-12T05:50:26.945Z,37.97
2023-04-12T05:52:55.261Z,37.59
2023-04-12T05:55:28.248Z,37.69
2023-04-12T05:57:55.520Z,37.50
2023-04-12T06:00:23.589Z,37.26
2023-04-12T06:02:56.945Z,37.41
2023-04-12T06:05:42.802Z,37.70
2023-04-12T06:08:10.460Z,37.45
2023-04-12T06:10:37.542Z,37.11
2023-04-12T06:13:04.954Z,36.73
2023-04-12T06:15:33.738Z,36.79
2023-04-12T06:18:03.604Z,36.61
2023-04-12T06:20:30.858Z,36.51
2023-04-12T06:22:58.102Z,36.54
2023-04-12T06:25:26.088Z,36.45
2023-04-12T06:27:58.080Z,36.23
2023-04-12T06:30:28.134Z,36.22
2023-04-12T06:32:55.356Z,36.10
2023-04-12T06:35:25.623Z,35.35
2023-04-12T06:37:52.863Z,35.10
2023-04-12T06:40:19.861Z,35.24
2023-04-12T06:42:47.001Z,34.60
2023-04-12T06:45:23.340Z,33.86
2023-04-12T06:47:50.613Z,33.79
2023-04-12T06:50:18.669Z,33.40
2023-04-12T06:52:47.144Z,33.34
2023-04-12T06:55:14.794Z,32.77
2023-04-12T06:57:43.252Z,33.16
2023-04-12T07:00:14.026Z,32.84
2023-04-12T07:02:41.389Z,32.37
2023-04-12T07:05:09.877Z,32.46
2023-04-12T07:07:40.098Z,32.41
2023-04-12T07:10:07.786Z,32.76
2023-04-12T07:12:34.758Z,32.41
2023-04-12T07:15:02.795Z,31.81
2023-04-12T07:17:30.383Z,32.07
2023-04-12T07:20:25.787Z,31.85
2023-04-12T07:22:52.620Z,32.15
2023-04-12T07:25:19.545Z,32.09
2023-04-12T07:27:46.605Z,30.94
2023-04-12T07:30:13.874Z,30.14
2023-04-12T07:32:41.025Z,31.04
2023-04-12T07:35:08.621Z,30.14
2023-04-12T07:37:36.055Z,29.61
2023-04-12T07:40:12.931Z,29.80
2023-04-12T07:42:45.409Z,29.85
2023-04-12T07:45:12.648Z,29.19
2023-04-12T07:47:39.736Z,29.56
2023-04-12T07:50:09.527Z,29.63
2023-04-12T07:52:42.247Z,28.93
2023-04-12T07:55:10.322Z,29.11
2023-04-12T07:57:38.089Z,28.79
2023-04-12T08:00:06.119Z,28.60
2023-04-12T08:02:43.134Z,27.91
2023-04-12T08:05:10.655Z,27.42
2023-04-12T08:07:37.757Z,27.33
2023-04-12T08:10:05.077Z,27.57
2023-04-12T08:12:32.053Z,27.26
2023-04-12T08:15:03.604Z,27.62
2023-04-12T08:17:30.956Z,26.76
2023-04-12T08:19:57.863Z,26.67
2023-04-12T08:22:25.245Z,26.44
2023-04-12T08:24:52.835Z,26.06
2023-04-12T08:27:20.295Z,26.05
2023-04-12T08:29:47.389Z,25.68
2023-04-12T08:32:14.419Z,26.13
2023-04-12T08:34:42.064Z,24.52
2023-04-12T08:37:10.873Z,23.84
2023-04-12T08:39:37.844Z,24.03
2023-04-12T08:42:10.837Z,23.52
2023-04-12T08:44:39.817Z,23.31
2023-04-12T08:47:10.904Z,22.81
2023-04-12T08:49:38.496Z,22.36
2023-04-12T08:52:07.274Z,22.58
2023-04-12T08:54:34.827Z,22.44
2023-04-12T08:57:04.723Z,21.99
2023-04-12T08:59:33.193Z,22.05
2023-04-12T09:02:00.841Z,22.14
2023-04-12T09:04:28.042Z,21.32
2023-04-12T09:06:55.421Z,21.25
2023-04-12T09:09:43.392Z,21.52
2023-04-12T09:12:11.412Z,21.60
2023-04-12T09:14:39.525Z,20.74
2023-04-12T09:17:25.088Z,20.53
2023-04-12T09:19:53.401Z,20.10
2023-04-12T09:22:33.332Z,19.58
2023-04-12T09:25:01.036Z,18.94
2023-04-12T09:27:29.996Z,18.68
2023-04-12T09:30:13.198Z,19.48
2023-04-12T09:32:40.332Z,19.22
2023-04-12T09:35:07.887Z,18.42
2023-04-12T09:37:35.331Z,18.01
2023-04-12T09:40:04.690Z,18.63
2023-04-12T09:42:35.102Z,18.07
2023-04-12T09:45:24.624Z,18.34
2023-04-12T09:47:54.846Z,18.72
2023-04-12T09:50:28.624Z,18.79
2023-04-12T09:52:56.922Z,19.11
2023-04-12T09:55:26.368Z,18.79
2023-04-12T09:57:55.574Z,18.15
2023-04-12T10:00:25.532Z,17.52
2023-04-12T10:02:54.667Z,17.76
2023-04-12T10:05:28.271Z,17.87
2023-04-12T10:07:58.609Z,17.55
2023-04-12T10:10:33.869Z,16.97
2023-04-12T10:13:19.396Z,18.08
2023-04-12T10:15:53.317Z,17.86
2023-04-12T10:18:24.230Z,17.83
2023-04-12T10:20:51.551Z,17.50
2023-04-12T10:23:24.570Z,17.43
2023-04-12T10:25:55.620Z,17.47
2023-04-12T10:28:23.634Z,16.99
2023-04-12T10:30:57.486Z,16.80
2023-04-12T10:33:31.848Z,16.30
2023-04-12T10:36:08.937Z,16.26
2023-04-12T10:39:09.843Z,16.39
2023-04-12T10:41:37.668Z,16.18
2023-04-12T10:44:26.319Z,15.60
2023-04-12T10:46:53.490Z,16.05
2023-04-12T10:49:39.471Z,15.86
2023-04-12T10:52:14.191Z,15.60
2023-04-12T10:54:41.783Z,15.25
2023-04-12T10:57:44.177Z,15.41
2023-04-12T11:00:11.734Z,15.25
2023-04-12T11:03:06.367Z,15.11
2023-04-12T11:06:20.027Z,14.94
2023-04-12T11:09:42.133Z,14.59
2023-04-12T11:12:15.543Z,14.60
2023-04-12T11:14:50.106Z,14.46
2023-04-12T11:17:21.741Z,14.40
2023-04-12T11:20:00.553Z,14.38
2023-04-12T11:22:30.265Z,14.77
2023-04-12T11:25:01.868Z,13.77
2023-04-12T11:27:32.030Z,14.44
2023-04-12T11:29:59.991Z,14.36
2023-04-12T11:32:29.542Z,14.23
2023-04-12T11:34:58.067Z,14.77
2023-04-12T11:37:32.383Z,14.84
2023-04-12T11:40:00.516Z,15.05
2023-04-12T11:42:30.429Z,14.91
2023-04-12T11:45:02.516Z,14.99
2023-04-12T11:47:36.321Z,14.44
2023-04-12T11:50:03.934Z,13.92
2023-04-12T11:52:32.608Z,14.30
2023-04-12T11:55:11.348Z,13.68
2023-04-12T11:57:39.669Z,13.62
2023-04-12T12:00:10.273Z,13.93
2023-04-12T12:02:46.577Z,13.82
2023-04-12T12:05:20.434Z,13.48
2023-04-12T12:07:47.779Z,13.30
2023-04-12T12:10:32.547Z,13.38
2023-04-12T12:13:12.968Z,13.03
2023-04-12T12:15:44.789Z,13.68
2023-04-12T12:18:12.135Z,12.92
2023-04-12T12:20:52.576Z,12.96
2023-04-12T12:23:32.433Z,13.25
2023-04-12T12:26:18.392Z,13.21
2023-04-12T12:28:56.535Z,13.06
2023-04-12T12:31:45.651Z,12.51
2023-04-12T12:34:14.251Z,13.05
2023-04-12T12:36:41.399Z,12.78
2023-04-12T12:39:11.020Z,12.51
2023-04-12T12:41:43.276Z,13.00
2023-04-12T12:44:11.612Z,12.61
2023-04-12T12:46:53.465Z,12.53
2023-04-12T12:49:20.991Z,12.97
2023-04-12T12:51:48.158Z,13.76
2023-04-12T12:54:31.761Z,13.56
2023-04-12T12:57:32.083Z,12.42
2023-04-12T12:59:59.042Z,12.31
2023-04-12T13:02:26.395Z,12.06
2023-04-12T13:04:57.646Z,12.75
2023-04-12T13:07:24.788Z,12.54
2023-04-12T13:09:51.792Z,12.72
2023-04-12T13:12:21.474Z,12.89
2023-04-12T13:14:48.939Z,12.37
2023-04-12T13:17:18.967Z,12.67
2023-04-12T13:19:47.006Z,12.35
2023-04-12T13:22:17.155Z,12.16
2023-04-12T13:24:44.167Z,12.31
2023-04-12T13:27:12.727Z,12.09
2023-04-12T13:29:43.430Z,11.63
2023-04-12T13:32:10.556Z,11.91
2023-04-12T13:34:37.888Z,12.12
2023-04-12T13:37:04.877Z,11.71
2023-04-12T13:39:33.774Z,11.91
2023-04-12T13:42:02.443Z,12.32
2023-04-12T13:44:36.877Z,12.57
2023-04-12T13:47:04.729Z,12.58
2023-04-12T13:49:31.687Z,12.80
2023-04-12T13:52:02.952Z,12.58
2023-04-12T13:54:31.035Z,12.42
2023-04-12T13:56:58.549Z,12.65
2023-04-12T13:59:28.517Z,12.66
2023-04-12T14:01:56.250Z,12.96
2023-04-12T14:04:23.379Z,12.75
2023-04-12T14:06:50.362Z,12.87
2023-04-12T14:09:34.558Z,12.54
2023-04-12T14:12:03.970Z,13.33
2023-04-12T14:14:33.587Z,12.97
2023-04-12T14:17:02.154Z,13.70
2023-04-12T14:19:29.714Z,13.76
2023-04-12T14:21:57.029Z,13.91
2023-04-12T14:24:26.867Z,13.76
2023-04-12T14:26:54.550Z,13.74
2023-04-12T14:29:21.421Z,13.58
2023-04-12T14:31:48.852Z,13.98
2023-04-12T14:34:15.887Z,14.02
2023-04-12T14:36:42.948Z,14.83
2023-04-12T14:39:13.896Z,15.15
2023-04-12T14:41:42.199Z,15.99
2023-04-12T14:44:09.099Z,16.06
2023-04-12T14:46:36.513Z,15.99
2023-04-12T14:49:03.456Z,16.52
2023-04-12T14:51:30.556Z,16.59
2023-04-12T14:54:00.417Z,16.92
2023-04-12T14:56:30.509Z,16.80
2023-04-12T14:58:58.285Z,16.89
2023-04-12T15:01:25.792Z,17.41
2023-04-12T15:03:56.201Z,17.75
2023-04-12T15:06:26.143Z,18.00
2023-04-12T15:08:57.696Z,17.92
2023-04-12T15:11:27.478Z,17.75
2023-04-12T15:13:55.448Z,18.48
2023-04-12T15:16:23.719Z,18.86
2023-04-12T15:18:51.512Z,19.26
2023-04-12T15:21:18.867Z,19.72
2023-04-12T15:23:46.226Z,20.37
2023-04-12T15:26:14.511Z,20.45
2023-04-12T15:28:42.508Z,20.48
2023-04-12T15:31:12.111Z,20.89
2023-04-12T15:33:39.249Z,21.36
2023-04-12T15:36:06.700Z,21.71
2023-04-12T15:38:43.343Z,21.92
2023-04-12T15:41:13.773Z,21.96
2023-04-12T15:43:42.264Z,22.38
2023-04-12T15:46:11.843Z,22.24
2023-04-12T15:48:39.017Z,22.64
2023-04-12T15:51:14.297Z,22.69
2023-04-12T15:53:43.548Z,23.35
2023-04-12T15:56:18.396Z,23.17
2023-04-12T15:58:46.196Z,23.39
2023-04-12T16:01:13.261Z,23.34
2023-04-12T16:03:41.962Z,23.64
2023-04-12T16:06:09.256Z,23.58
2023-04-12T16:08:36.286Z,23.92
2023-04-12T16:11:06.318Z,23.97
2023-04-12T16:13:33.386Z,24.38
2023-04-12T16:16:00.628Z,24.37
2023-04-12T16:18:30.998Z,24.70
2023-04-12T16:20:58.422Z,24.71
2023-04-12T16:23:25.497Z,24.86
2023-04-12T16:25:52.706Z,25.20
2023-04-12T16:28:20.789Z,25.44
2023-04-12T16:30:49.697Z,25.63
2023-04-12T16:33:17.058Z,25.55
2023-04-12T16:36:04.685Z,25.57
2023-04-12T16:38:33.041Z,25.68
2023-04-12T16:41:00.207Z,25.63
2023-04-12T16:43:27.618Z,26.05
2023-04-12T16:45:55.729Z,26.32
2023-04-12T16:48:26.337Z,26.31
2023-04-12T16:50:55.256Z,26.45
2023-04-12T16:53:22.426Z,26.45
2023-04-12T16:55:49.467Z,26.35
2023-04-12T16:58:22.551Z,26.37
2023-04-12T17:00:59.112Z,26.29
2023-04-12T17:03:27.005Z,26.34
2023-04-12T17:06:03.263Z,26.72
2023-04-12T17:08:32.094Z,26.57
2023-04-12T17:11:01.663Z,26.73
2023-04-12T17:13:30.344Z,26.74
2023-04-12T17:16:00.366Z,27.11
2023-04-12T17:18:27.430Z,26.98
2023-04-12T17:20:56.180Z,27.37
2023-04-12T17:23:24.921Z,27.41
2023-04-12T17:25:54.745Z,27.88
2023-04-12T17:28:21.897Z,27.60
2023-04-12T17:30:49.356Z,27.86
2023-04-12T17:33:18.317Z,27.94
2023-04-12T17:38:37.518Z,28.25
2023-04-12T17:41:04.964Z,28.62
2023-04-12T17:43:33.345Z,28.94
2023-04-12T17:46:03.809Z,29.20
2023-04-12T17:48:31.606Z,29.41
2023-04-12T17:50:59.965Z,29.59
2023-04-12T17:53:29.466Z,30.14
2023-04-12T17:55:59.880Z,30.33
2023-04-12T17:58:45.633Z,29.65
2023-04-12T18:01:14.455Z,29.70
2023-04-12T18:03:41.964Z,30.13
2023-04-12T18:06:46.293Z,29.78
2023-04-12T18:09:13.894Z,30.03
2023-04-12T18:11:43.376Z,30.07
2023-04-12T18:14:13.858Z,30.25
2023-04-12T18:16:41.412Z,30.25
2023-04-12T18:19:30.146Z,30.20
2023-04-12T18:21:58.967Z,31.10
2023-04-12T18:24:26.579Z,30.82
2023-04-12T18:26:54.867Z,31.25
2023-04-12T18:29:22.017Z,31.13
2023-04-12T18:31:49.026Z,31.95
2023-04-12T18:34:29.155Z,32.26
2023-04-12T18:37:04.132Z,33.34
2023-04-12T18:39:37.616Z,32.90
2023-04-12T18:42:06.521Z,33.38
2023-04-12T18:44:34.762Z,33.77
2023-04-12T18:47:01.938Z,32.37
2023-04-12T18:49:47.511Z,33.80
2023-04-12T18:52:17.384Z,31.88
2023-04-12T18:54:44.492Z,31.64
2023-04-12T18:57:18.768Z,32.52
2023-04-12T18:59:49.151Z,32.38
2023-04-12T19:02:21.233Z,32.70
2023-04-12T19:04:51.524Z,33.51
2023-04-12T19:07:18.896Z,33.33
2023-04-12T19:09:47.181Z,33.11
2023-04-12T19:12:14.338Z,32.86
2023-04-12T19:14:42.586Z,33.00
2023-04-12T19:17:10.778Z,32.56
2023-04-12T19:19:38.027Z,32.45
2023-04-12T19:22:07.685Z,32.64
2023-04-12T19:24:54.484Z,32.71
2023-04-12T19:27:22.973Z,32.98
2023-04-12T19:29:51.761Z,33.06
2023-04-12T19:32:19.438Z,33.53
2023-04-12T19:34:53.955Z,33.45
2023-04-12T19:37:21.722Z,33.74
2023-04-12T19:39:50.512Z,34.04
2023-04-12T19:42:17.796Z,33.62
2023-04-12T19:44:44.895Z,33.93
2023-04-12T19:47:11.943Z,33.98
2023-04-12T19:49:39.359Z,34.27
2023-04-12T19:52:27.036Z,34.62
2023-04-12T19:54:56.993Z,34.55
2023-04-12T19:57:25.112Z,34.70
2023-04-12T19:59:52.658Z,35.42
2023-04-12T20:02:20.373Z,35.58
2023-04-12T20:04:49.506Z,35.57
2023-04-12T20:07:16.706Z,35.93
2023-04-12T20:09:48.458Z,35.57
2023-04-12T20:12:16.758Z,36.49
2023-04-12T20:14:46.875Z,36.15
2023-04-12T20:17:16.654Z,36.93
2023-04-12T20:19:43.513Z,37.26
2023-04-12T20:22:10.671Z,36.74
2023-04-12T20:24:40.387Z,36.85
2023-04-12T20:27:09.853Z,37.17
2023-04-12T20:29:36.961Z,36.98
2023-04-12T20:32:04.508Z,37.00
2023-04-12T20:34:34.639Z,37.24
2023-04-12T20:37:02.172Z,36.87
2023-04-12T20:39:29.654Z,36.89
2023-04-12T20:42:01.137Z,36.73
2023-04-12T20:44:28.562Z,36.55
2023-04-12T20:46:55.591Z,36.56
2023-04-12T20:49:22.556Z,36.85
2023-04-12T20:51:50.985Z,36.84
2023-04-12T20:54:20.030Z,36.79
2023-04-12T20:56:46.983Z,36.71
2023-04-12T20:59:14.333Z,36.84
2023-04-12T21:01:43.322Z,37.00
2023-04-12T21:04:33.311Z,36.41
2023-04-12T21:07:07.836Z,36.69
2023-04-12T21:09:35.483Z,36.43
2023-04-12T21:12:06.200Z,36.36
2023-04-12T21:14:36.135Z,36.62
2023-04-12T21:17:07.412Z,36.54
2023-04-12T21:19:42.018Z,36.20
2023-04-12T21:22:09.243Z,36.04
2023-04-12T21:24:38.628Z,35.91
2023-04-12T21:27:09.272Z,35.80
2023-04-12T21:29:41.343Z,35.77
2023-04-12T21:32:12.266Z,35.95
2023-04-12T21:34:45.916Z,35.82
2023-04-12T21:37:15.930Z,35.83
2023-04-12T21:39:44.793Z,36.06
2023-04-12T21:42:11.760Z,36.28
2023-04-12T21:44:42.069Z,36.43
2023-04-12T21:47:09.245Z,36.39
2023-04-12T21:49:36.169Z,36.30
2023-04-12T21:52:08.299Z,36.48
2023-04-12T21:54:37.164Z,36.42
2023-04-12T21:57:04.890Z,36.61
2023-04-12T21:59:31.745Z,36.73
2023-04-12T22:01:58.720Z,36.48
2023-04-12T22:04:25.771Z,36.62
2023-04-12T22:06:53.025Z,36.70
2023-04-12T22:09:23.523Z,36.66
2023-04-12T22:11:50.497Z,36.57
2023-04-12T22:14:17.388Z,36.62
2023-04-12T22:16:45.334Z,36.80
2023-04-12T22:19:13.097Z,36.66
2023-04-12T22:21:40.274Z,36.66
2023-04-12T22:24:08.411Z,36.97
2023-04-12T22:26:35.567Z,37.19
2023-04-12T22:29:03.128Z,36.97
2023-04-12T22:31:48.544Z,37.05
2023-04-12T22:34:35.144Z,37.57
2023-04-12T22:37:03.574Z,37.45
2023-04-12T22:39:51.573Z,37.54
2023-04-12T22:42:20.909Z,37.73
2023-04-12T22:44:49.912Z,37.84
2023-04-12T22:47:35.859Z,37.75
2023-04-12T22:50:08.326Z,37.70
2023-04-12T22:52:47.825Z,38.06
2023-04-12T22:55:33.490Z,37.81
2023-04-12T22:58:01.782Z,38.10
2023-04-12T23:00:30.519Z,38.18
2023-04-12T23:03:34.502Z,38.45
2023-04-12T23:06:02.134Z,38.74
2023-04-12T23:08:29.473Z,38.74
2023-04-12T23:11:02.301Z,38.72
2023-04-12T23:13:35.837Z,39.00
2023-04-12T23:16:06.551Z,39.42
2023-04-12T23:18:33.742Z,39.43
2023-04-12T23:21:04.292Z,39.37
2023-04-12T23:23:37.367Z,39.46
2023-04-12T23:26:04.427Z,39.81
2023-04-12T23:28:31.370Z,39.89
2023-04-12T23:31:01.731Z,40.07
2023-04-12T23:33:29.266Z,40.34
2023-04-12T23:35:56.290Z,40.42
2023-04-12T23:38:26.173Z,40.84
2023-04-12T23:41:12.908Z,40.91
2023-04-12T23:43:40.009Z,41.14
2023-04-12T23:46:07.119Z,41.04
2023-04-12T23:48:35.205Z,41.33
2023-04-12T23:51:02.183Z,41.12
2023-04-12T23:53:47.734Z,41.26
2023-04-12T23:56:16.091Z,40.94
2023-04-12T23:58:43.039Z,41.09
